createdAt,value
2022-08-07T00:02:40.398Z,1.52
2022-08-07T00:07:58.232Z,1.40
2022-08-07T00:13:23.457Z,1.10
2022-08-07T00:18:31.625Z,1.20
2022-08-07T00:23:39.541Z,1.20
2022-08-07T00:28:45.923Z,1.13
2022-08-07T00:34:01.180Z,1.10
2022-08-07T00:39:05.583Z,1.20
2022-08-07T00:44:09.931Z,1.03
2022-08-07T00:49:24.761Z,0.90
2022-08-07T00:54:40.632Z,0.80
2022-08-07T00:59:45.410Z,0.98
2022-08-07T01:04:58.327Z,0.90
2022-08-07T01:10:11.027Z,0.90
2022-08-07T01:15:17.789Z,0.67
2022-08-07T01:20:59.241Z,1.00
2022-08-07T01:26:08.315Z,0.80
2022-08-07T01:31:19.119Z,0.80
2022-08-07T01:36:33.601Z,0.95
2022-08-07T01:42:01.555Z,0.90
2022-08-07T01:47:14.371Z,0.63
2022-08-07T01:52:54.032Z,0.82
2022-08-07T01:58:06.505Z,1.05
2022-08-07T02:03:42.671Z,0.80
2022-08-07T02:08:56.594Z,0.80
2022-08-07T02:14:08.772Z,0.90
2022-08-07T02:20:03.611Z,1.00
2022-08-07T02:24:45.581Z,0.70
2022-08-07T02:29:58.518Z,0.68
2022-08-07T02:35:15.195Z,0.75
2022-08-07T02:40:30.237Z,0.80
2022-08-07T02:46:00.694Z,0.83
2022-08-07T02:51:42.768Z,0.90
2022-08-07T02:56:43.380Z,0.70
2022-08-07T03:01:52.158Z,0.90
2022-08-07T03:07:07.046Z,0.80
2022-08-07T03:12:22.463Z,0.60
2022-08-07T03:17:53.774Z,1.07
2022-08-07T03:23:00.934Z,0.90
2022-08-07T03:28:38.004Z,1.10
2022-08-07T03:33:40.204Z,0.80
2022-08-07T03:38:49.976Z,1.15
2022-08-07T03:43:57.151Z,1.03
2022-08-07T03:49:09.619Z,0.90
2022-08-07T03:54:35.431Z,1.10
2022-08-07T04:00:01.833Z,1.80
2022-08-07T04:05:10.651Z,1.20
2022-08-07T04:10:19.743Z,1.38
2022-08-07T04:15:25.680Z,1.92
2022-08-07T04:20:35.229Z,1.53
2022-08-07T04:25:42.294Z,1.23
2022-08-07T04:30:56.918Z,1.40
2022-08-07T04:36:11.244Z,0.90
2022-08-07T04:41:18.999Z,0.90
2022-08-07T04:46:59.723Z,1.00
2022-08-07T04:52:15.497Z,0.90
2022-08-07T04:58:14.030Z,1.00
2022-08-07T05:03:16.730Z,1.00
2022-08-07T05:09:00.047Z,0.68
2022-08-07T05:14:53.189Z,0.80
2022-08-07T05:19:46.120Z,0.80
2022-08-07T05:24:57.191Z,0.70
2022-08-07T05:30:05.604Z,0.90
2022-08-07T05:35:13.021Z,1.20
2022-08-07T05:40:20.814Z,0.70
2022-08-07T05:45:46.988Z,1.00
2022-08-07T05:50:53.921Z,0.80
2022-08-07T05:56:05.480Z,0.70
2022-08-07T06:01:16.827Z,0.80
2022-08-07T06:06:29.466Z,1.00
2022-08-07T06:11:36.646Z,1.00
2022-08-07T06:16:49.945Z,1.08
2022-08-07T06:22:16.781Z,1.02
2022-08-07T06:27:44.390Z,1.80
2022-08-07T06:32:50.457Z,1.30
2022-08-07T06:37:58.061Z,1.25
2022-08-07T06:43:21.247Z,1.70
2022-08-07T06:48:44.978Z,1.10
2022-08-07T06:55:29.550Z,0.60
2022-08-07T07:00:14.658Z,0.77
2022-08-07T07:05:03.960Z,1.20
2022-08-07T07:10:10.017Z,1.00
2022-08-07T07:15:26.365Z,0.80
2022-08-07T07:20:44.392Z,0.60
2022-08-07T07:26:34.684Z,1.07
2022-08-07T07:31:30.417Z,1.45
2022-08-07T07:36:52.659Z,1.00
2022-08-07T07:42:13.496Z,1.17
2022-08-07T07:47:26.020Z,1.30
2022-08-07T07:52:35.232Z,1.43
2022-08-07T07:57:53.412Z,1.10
2022-08-07T08:03:08.021Z,1.50
2022-08-07T08:08:32.215Z,1.23
2022-08-07T08:13:53.867Z,1.67
2022-08-07T08:19:17.402Z,1.48
2022-08-07T08:25:04.533Z,1.13
2022-08-07T08:30:17.555Z,1.42
2022-08-07T08:35:39.031Z,1.70
2022-08-07T08:40:57.016Z,2.23
2022-08-07T08:46:11.538Z,2.30
2022-08-07T08:51:49.862Z,2.20
2022-08-07T08:56:55.870Z,1.70
2022-08-07T09:02:34.733Z,1.80
2022-08-07T09:07:57.754Z,1.60
2022-08-07T09:13:15.037Z,1.90
2022-08-07T09:18:41.488Z,2.27
2022-08-07T09:24:31.269Z,2.55
2022-08-07T09:30:03.416Z,1.90
2022-08-07T09:36:04.588Z,2.50
2022-08-07T09:41:15.900Z,1.95
2022-08-07T09:47:51.544Z,2.35
2022-08-07T09:52:34.141Z,2.60
2022-08-07T09:58:42.159Z,2.10
2022-08-07T10:04:27.986Z,1.73
2022-08-07T10:10:21.518Z,1.70
2022-08-07T10:16:02.801Z,2.30
2022-08-07T10:22:14.235Z,2.90
2022-08-07T10:27:11.986Z,2.30
2022-08-07T10:32:59.884Z,2.13
2022-08-07T10:38:48.893Z,2.20
2022-08-07T10:44:08.067Z,1.80
2022-08-07T10:49:24.685Z,2.38
2022-08-07T10:55:01.617Z,2.00
2022-08-07T11:00:36.441Z,2.35
2022-08-07T11:05:55.581Z,2.07
2022-08-07T11:11:09.047Z,2.00
2022-08-07T11:16:25.594Z,2.13
2022-08-07T11:21:49.110Z,1.90
2022-08-07T11:27:04.504Z,2.40
2022-08-07T11:32:25.739Z,2.13
2022-08-07T11:38:12.881Z,2.07
2022-08-07T11:43:29.809Z,1.90
2022-08-07T11:49:28.708Z,2.13
2022-08-07T11:55:03.291Z,2.20
2022-08-07T12:00:28.356Z,2.60
2022-08-07T12:05:50.538Z,2.60
2022-08-07T12:11:20.115Z,2.15
2022-08-07T12:16:37.190Z,2.33
2022-08-07T12:21:55.773Z,2.27
2022-08-07T12:27:28.010Z,3.00
2022-08-07T12:32:59.703Z,3.10
2022-08-07T12:38:10.233Z,2.38
2022-08-07T12:44:03.401Z,2.00
2022-08-07T12:49:10.014Z,2.17
2022-08-07T12:54:41.252Z,1.90
2022-08-07T12:59:55.699Z,1.85
2022-08-07T13:06:03.652Z,1.83
2022-08-07T13:11:08.971Z,2.00
2022-08-07T13:16:32.229Z,1.80
2022-08-07T13:21:58.913Z,1.87
2022-08-07T13:27:20.772Z,1.70
2022-08-07T13:32:37.524Z,1.80
2022-08-07T13:37:58.533Z,2.50
2022-08-07T13:43:12.795Z,1.92
2022-08-07T13:48:33.910Z,2.45
2022-08-07T13:54:00.422Z,1.93
2022-08-07T13:59:13.056Z,2.55
2022-08-07T14:04:24.425Z,2.37
2022-08-07T14:10:01.950Z,2.47
2022-08-07T14:15:10.375Z,2.30
2022-08-07T14:20:40.244Z,2.67
2022-08-07T14:25:55.538Z,1.92
2022-08-07T14:31:01.738Z,2.15
2022-08-07T14:36:12.954Z,2.00
2022-08-07T14:41:33.885Z,2.40
2022-08-07T14:47:08.505Z,1.90
2022-08-07T14:52:27.995Z,1.90
2022-08-07T14:57:54.771Z,1.70
2022-08-07T15:03:16.659Z,1.88
2022-08-07T15:08:32.381Z,2.05
2022-08-07T15:13:46.876Z,2.65
2022-08-07T15:19:00.697Z,2.88
2022-08-07T15:25:13.965Z,2.20
2022-08-07T15:30:04.602Z,2.37
2022-08-07T15:41:00.150Z,2.27
2022-08-07T15:46:34.276Z,2.20
2022-08-07T15:57:05.755Z,2.08
2022-08-07T16:02:15.538Z,2.42
2022-08-07T16:08:32.271Z,2.43
2022-08-07T16:13:05.751Z,2.67
2022-08-07T16:18:50.764Z,2.17
2022-08-07T16:24:03.671Z,3.53
2022-08-07T16:30:11.334Z,2.45
2022-08-07T16:35:56.506Z,3.13
2022-08-07T16:41:12.495Z,2.45
2022-08-07T16:47:18.317Z,2.10
2022-08-07T16:52:55.987Z,2.20
2022-08-07T16:58:08.201Z,2.00
2022-08-07T17:03:57.791Z,2.50
2022-08-07T17:09:10.826Z,2.28
2022-08-07T17:14:32.097Z,1.90
2022-08-07T17:20:00.614Z,1.92
2022-08-07T17:25:17.674Z,2.10
2022-08-07T17:30:28.478Z,2.50
2022-08-07T17:35:55.246Z,2.20
2022-08-07T17:41:12.362Z,2.17
2022-08-07T17:46:43.157Z,2.47
2022-08-07T17:52:10.421Z,2.63
2022-08-07T17:57:32.049Z,2.30
2022-08-07T18:03:00.306Z,2.15
2022-08-07T18:08:24.404Z,2.20
2022-08-07T18:13:48.292Z,2.10
2022-08-07T18:21:04.029Z,2.58
2022-08-07T18:24:34.504Z,2.40
2022-08-07T18:30:07.660Z,2.10
2022-08-07T18:35:27.809Z,2.15
2022-08-07T18:41:05.125Z,2.35
2022-08-07T18:46:26.887Z,2.50
2022-08-07T18:52:33.896Z,2.42
2022-08-07T18:57:30.699Z,2.50
2022-08-07T19:02:46.052Z,2.70
2022-08-07T19:08:05.391Z,2.30
2022-08-07T19:13:24.342Z,2.60
2022-08-07T19:18:49.371Z,3.00
2022-08-07T19:24:01.108Z,3.78
2022-08-07T19:30:57.802Z,4.38
2022-08-07T19:34:34.221Z,2.90
2022-08-07T19:39:57.791Z,4.00
2022-08-07T19:46:07.232Z,4.17
2022-08-07T19:50:45.714Z,2.77
2022-08-07T19:55:58.560Z,4.50
2022-08-07T20:01:09.635Z,3.50
2022-08-07T20:06:30.543Z,3.40
2022-08-07T20:12:22.100Z,2.88
2022-08-07T20:17:11.819Z,3.10
2022-08-07T20:22:28.993Z,2.95
2022-08-07T20:27:46.304Z,2.80
2022-08-07T20:33:00.187Z,2.97
2022-08-07T20:38:07.972Z,3.20
2022-08-07T20:43:14.704Z,3.40
2022-08-07T20:48:30.778Z,3.15
2022-08-07T20:54:04.851Z,2.78
2022-08-07T21:00:04.439Z,3.20
2022-08-07T21:04:34.645Z,3.13
2022-08-07T21:09:52.529Z,3.60
2022-08-07T21:15:10.475Z,3.70
2022-08-07T21:20:30.100Z,3.47
2022-08-07T21:25:57.002Z,4.10
2022-08-07T21:31:15.138Z,3.35
2022-08-07T21:36:32.729Z,3.10
2022-08-07T21:41:52.321Z,2.97
2022-08-07T21:47:17.363Z,3.50
2022-08-07T21:52:37.255Z,3.50
2022-08-07T21:58:00.111Z,3.40
2022-08-07T22:03:17.080Z,4.00
2022-08-07T22:08:34.971Z,3.57
2022-08-07T22:13:52.298Z,4.03
2022-08-07T22:19:23.617Z,7.53
2022-08-07T22:24:47.171Z,3.90
2022-08-07T22:30:02.065Z,4.70
2022-08-07T22:35:11.197Z,4.00
2022-08-07T22:40:25.595Z,4.38
2022-08-07T22:46:22.003Z,3.85
2022-08-07T22:52:00.662Z,4.95
2022-08-07T22:57:34.180Z,3.78
2022-08-07T23:03:31.384Z,3.95
2022-08-07T23:10:04.785Z,3.23
2022-08-07T23:15:10.091Z,4.00
2022-08-07T23:20:52.755Z,5.35
2022-08-07T23:26:19.451Z,4.32
2022-08-07T23:34:19.695Z,4.03
2022-08-07T23:38:00.528Z,4.32
2022-08-07T23:43:37.842Z,3.73
2022-08-07T23:49:50.584Z,3.78
2022-08-07T23:55:06.060Z,3.70
